| time (UTC) | temp F | wind direction | speed MPH | gust MPH | rain 1hr in | rain 24hr in | rain mn in | humidity % | barometer mb |
| 20260508204418 | 69 | 152 | 1.0 | 2.0 | 0.00 | 0.00 | 0.00 | 52 | 1016.4 |
| 20260508203913 | 70 | 154 | 0.0 | 3.0 | 0.00 | 0.00 | 0.00 | 53 | 1016.5 |
| 20260508203410 | 70 | 170 | 0.0 | 3.0 | 0.00 | 0.00 | 0.00 | 52 | 1016.3 |
| 20260508202906 | 69 | 236 | 1.0 | 2.0 | 0.00 | 0.00 | 0.00 | 52 | 1016.4 |
| 20260508202403 | 70 | 172 | 2.0 | 2.0 | 0.00 | 0.00 | 0.00 | 51 | 1016.6 |
| 20260508201900 | 70 | 225 | 2.0 | 3.0 | 0.00 | 0.00 | 0.00 | 51 | 1016.7 |
| 20260508201357 | 70 | 149 | 0.0 | 1.0 | 0.00 | 0.00 | 0.00 | 51 | 1016.6 |
| 20260508200853 | 70 | 151 | 0.0 | 1.0 | 0.00 | 0.00 | 0.00 | 51 | 1016.8 |
| 20260508200350 | 70 | 241 | 2.0 | 4.0 | 0.00 | 0.00 | 0.00 | 51 | 1016.7 |
| 20260508195846 | 71 | 164 | 0.0 | 2.0 | 0.00 | 0.00 | 0.00 | 50 | 1016.8 |
| 20260508195343 | 71 | 153 | 1.0 | 3.0 | 0.00 | 0.00 | 0.00 | 49 | 1016.9 |
| 20260508194839 | 71 | 144 | 1.0 | 6.0 | 0.00 | 0.00 | 0.00 | 50 | 1016.9 |
| 20260508194336 | 70 | 144 | 1.0 | 2.0 | 0.00 | 0.00 | 0.00 | 51 | 1017.2 |
| 20260508193833 | 70 | 278 | 1.0 | 2.0 | 0.00 | 0.00 | 0.00 | 50 | 1017.2 |
| 20260508193330 | 70 | 202 | 2.0 | 7.0 | 0.00 | 0.00 | 0.00 | 50 | 1017.3 |
| 20260508192827 | 70 | 259 | 2.0 | 8.0 | 0.00 | 0.00 | 0.00 | 49 | 1017.3 |
| 20260508192323 | 70 | 244 | 1.0 | 4.0 | 0.00 | 0.00 | 0.00 | 49 | 1017.4 |
| 20260508191820 | 70 | 145 | 3.0 | 6.0 | 0.00 | 0.00 | 0.00 | 49 | 1017.4 |
| 20260508191318 | 69 | 266 | 2.0 | 4.0 | 0.00 | 0.00 | 0.00 | 50 | 1017.7 |
| 20260508190815 | 70 | 219 | 4.0 | 7.0 | 0.00 | 0.00 | 0.00 | 50 | 1017.6 |
| 20260508190311 | 70 | 191 | 1.0 | 2.0 | 0.00 | 0.00 | 0.00 | 50 | 1017.6 |
| 20260508185807 | 70 | 216 | 1.0 | 2.0 | 0.00 | 0.00 | 0.00 | 49 | 1017.7 |
| 20260508185306 | 70 | 152 | 0.0 | 4.0 | 0.00 | 0.00 | 0.00 | 48 | 1017.8 |
| 20260508184802 | 70 | 138 | 1.0 | 2.0 | 0.00 | 0.00 | 0.00 | 50 | 1017.6 |
| 20260508184259 | 71 | 178 | 0.0 | 1.0 | 0.00 | 0.00 | 0.00 | 48 | 1017.7 |
| 20260508183756 | 71 | 196 | 0.0 | 0.0 | 0.00 | 0.00 | 0.00 | 49 | 1017.8 |
| 20260508183252 | 70 | 46 | 1.0 | 2.0 | 0.00 | 0.00 | 0.00 | 48 | 1018.1 |
| 20260508182749 | 69 | 165 | 2.0 | 2.0 | 0.00 | 0.00 | 0.00 | 50 | 1018.3 |
| 20260508182245 | 68 | 240 | 3.0 | 4.0 | 0.00 | 0.00 | 0.00 | 51 | 1018.4 |
| 20260508181741 | 69 | 229 | 2.0 | 6.0 | 0.00 | 0.00 | 0.00 | 49 | 1018.2 |
| 20260508181238 | 69 | 265 | 2.0 | 4.0 | 0.00 | 0.00 | 0.00 | 47 | 1018.3 |
| 20260508180735 | 70 | 161 | 2.0 | 3.0 | 0.00 | 0.00 | 0.00 | 49 | 1018.1 |
| 20260508180232 | 69 | 160 | 3.0 | 4.0 | 0.00 | 0.00 | 0.00 | 48 | 1018.5 |
| 20260508175728 | 69 | 262 | 2.0 | 2.0 | 0.00 | 0.00 | 0.00 | 50 | 1018.3 |
| 20260508175225 | 68 | 154 | 1.0 | 3.0 | 0.00 | 0.00 | 0.00 | 50 | 1018.5 |
| 20260508174723 | 69 | 241 | 2.0 | 7.0 | 0.00 | 0.00 | 0.00 | 49 | 1018.6 |
| 20260508174220 | 68 | 179 | 0.0 | 2.0 | 0.00 | 0.00 | 0.00 | 50 | 1018.7 |
| 20260508173716 | 67 | 152 | 1.0 | 4.0 | 0.00 | 0.00 | 0.00 | 53 | 1018.7 |
| 20260508173212 | 68 | 153 | 2.0 | 6.0 | 0.00 | 0.00 | 0.00 | 54 | 1018.8 |
| 20260508172709 | 68 | 295 | 6.0 | 7.0 | 0.00 | 0.00 | 0.00 | 50 | 1018.8 |
| 20260508172206 | 68 | 188 | 2.0 | 2.0 | 0.00 | 0.00 | 0.00 | 53 | 1018.9 |
| 20260508171703 | 67 | 207 | 1.0 | 1.0 | 0.00 | 0.00 | 0.00 | 51 | 1018.9 |
| 20260508171159 | 68 | 265 | 4.0 | 6.0 | 0.00 | 0.00 | 0.00 | 50 | 1018.9 |
| 20260508170656 | 67 | 145 | 1.0 | 3.0 | 0.00 | 0.00 | 0.00 | 50 | 1019.1 |
| 20260508170154 | 68 | 273 | 4.0 | 7.0 | 0.00 | 0.00 | 0.00 | 49 | 1018.9 |
| 20260508165651 | 69 | 177 | 2.0 | 2.0 | 0.00 | 0.00 | 0.00 | 53 | 1019.2 |
| 20260508165147 | 68 | 233 | 3.0 | 9.0 | 0.00 | 0.00 | 0.00 | 50 | 1019.4 |
| 20260508164644 | 68 | 205 | 0.0 | 2.0 | 0.00 | 0.00 | 0.00 | 52 | 1019.3 |
| 20260508164141 | 68 | 123 | 1.0 | 4.0 | 0.00 | 0.00 | 0.00 | 53 | 1019.6 |
| 20260508163639 | 68 | 138 | 1.0 | 3.0 | 0.00 | 0.00 | 0.00 | 55 | 1019.5 |
| 20260508163136 | 68 | 242 | 0.0 | 3.0 | 0.00 | 0.00 | 0.00 | 52 | 1019.4 |
| 20260508162631 | 68 | 265 | 4.0 | 8.0 | 0.00 | 0.00 | 0.00 | 52 | 1019.6 |
| 20260508162129 | 66 | 220 | 1.0 | 1.0 | 0.00 | 0.00 | 0.00 | 53 | 1019.8 |
| 20260508161626 | 67 | 225 | 4.0 | 4.0 | 0.00 | 0.00 | 0.00 | 53 | 1019.7 |
| 20260508161123 | 66 | 170 | 2.0 | 3.0 | 0.00 | 0.00 | 0.00 | 55 | 1019.9 |
| 20260508160621 | 66 | 172 | 0.0 | 3.0 | 0.00 | 0.00 | 0.00 | 54 | 1019.9 |
| 20260508160119 | 67 | 165 | 2.0 | 4.0 | 0.00 | 0.00 | 0.00 | 52 | 1019.9 |
| 20260508155615 | 68 | 238 | 3.0 | 7.0 | 0.00 | 0.00 | 0.00 | 49 | 1019.7 |
| 20260508155112 | 68 | 279 | 2.0 | 4.0 | 0.00 | 0.00 | 0.00 | 52 | 1019.7 |
| 20260508154609 | 68 | 195 | 2.0 | 2.0 | 0.00 | 0.00 | 0.00 | 53 | 1020.0 |
| 20260508154106 | 68 | 141 | 0.0 | 0.0 | 0.00 | 0.00 | 0.00 | 53 | 1020.2 |
| 20260508153603 | 69 | 142 | 2.0 | 4.0 | 0.00 | 0.00 | 0.00 | 48 | 1020.2 |
| 20260508153059 | 69 | 172 | 1.0 | 2.0 | 0.00 | 0.00 | 0.00 | 49 | 1020.2 |
| 20260508152557 | 70 | 187 | 0.0 | 1.0 | 0.00 | 0.00 | 0.00 | 48 | 1020.3 |
| 20260508152058 | 68 | 140 | 0.0 | 0.0 | 0.00 | 0.00 | 0.00 | 52 | 1020.2 |
| 20260508151555 | 68 | 131 | 0.0 | 1.0 | 0.00 | 0.00 | 0.00 | 53 | 1020.6 |
| 20260508151052 | 66 | 137 | 0.0 | 3.0 | 0.00 | 0.00 | 0.00 | 52 | 1020.3 |
| 20260508150549 | 65 | 168 | 2.0 | 3.0 | 0.00 | 0.00 | 0.00 | 52 | 1020.3 |
| 20260508150045 | 66 | 164 | 2.0 | 3.0 | 0.00 | 0.00 | 0.00 | 52 | 1020.2 |
| 20260508145542 | 67 | 188 | 1.0 | 2.0 | 0.00 | 0.00 | 0.00 | 52 | 1020.2 |
| 20260508145038 | 66 | 160 | 1.0 | 2.0 | 0.00 | 0.00 | 0.00 | 53 | 1020.1 |
| 20260508144536 | 68 | 177 | 3.0 | 4.0 | 0.00 | 0.00 | 0.00 | 51 | 1019.9 |
| 20260508144033 | 68 | 101 | 0.0 | 3.0 | 0.00 | 0.00 | 0.00 | 53 | 1020.0 |
| 20260508143531 | 67 | 89 | 1.0 | 3.0 | 0.00 | 0.00 | 0.00 | 53 | 1019.9 |
| 20260508143027 | 66 | 55 | 1.0 | 2.0 | 0.00 | 0.00 | 0.00 | 56 | 1020.0 |
| 20260508142524 | 66 | 132 | 1.0 | 2.0 | 0.00 | 0.00 | 0.00 | 56 | 1019.9 |
| 20260508142020 | 66 | 73 | 1.0 | 2.0 | 0.00 | 0.00 | 0.00 | 56 | 1020.1 |
| 20260508141517 | 65 | 93 | 0.0 | 1.0 | 0.00 | 0.00 | 0.00 | 59 | 1020.2 |
| 20260508141015 | 64 | 143 | 1.0 | 2.0 | 0.00 | 0.00 | 0.00 | 61 | 1020.5 |
| 20260508140512 | 64 | 159 | 1.0 | 1.0 | 0.00 | 0.00 | 0.00 | 61 | 1020.6 |
| 20260508140008 | 63 | 101 | 0.0 | 3.0 | 0.00 | 0.00 | 0.00 | 63 | 1020.5 |
| 20260508135504 | 62 | 11 | 1.0 | 2.0 | 0.00 | 0.00 | 0.00 | 64 | 1020.5 |
| 20260508135000 | 62 | 127 | 0.0 | 1.0 | 0.00 | 0.00 | 0.00 | 69 | 1020.5 |
| 20260508134457 | 61 | 142 | 1.0 | 3.0 | 0.00 | 0.00 | 0.00 | 68 | 1020.5 |
| 20260508133953 | 61 | 123 | 0.0 | 1.0 | 0.00 | 0.00 | 0.00 | 72 | 1020.6 |
| 20260508133451 | 60 | 87 | 0.0 | 1.0 | 0.00 | 0.00 | 0.00 | 70 | 1020.5 |
| 20260508132947 | 60 | 58 | 0.0 | 1.0 | 0.00 | 0.00 | 0.00 | 70 | 1020.6 |
| 20260508132446 | 60 | 70 | 0.0 | 1.0 | 0.00 | 0.00 | 0.00 | 71 | 1020.5 |
| 20260508131942 | 59 | 71 | 0.0 | 2.0 | 0.00 | 0.00 | 0.00 | 71 | 1020.7 |
| 20260508131438 | 59 | 73 | 0.0 | 1.0 | 0.00 | 0.00 | 0.00 | 72 | 1020.6 |
| 20260508130935 | 59 | 104 | 0.0 | 2.0 | 0.00 | 0.00 | 0.00 | 72 | 1020.5 |
| 20260508130432 | 59 | 55 | 0.0 | 1.0 | 0.00 | 0.00 | 0.00 | 72 | 1020.5 |
| 20260508125927 | 59 | 118 | 1.0 | 2.0 | 0.00 | 0.00 | 0.00 | 72 | 1020.5 |
| 20260508125424 | 59 | 109 | 2.0 | 3.0 | 0.00 | 0.00 | 0.00 | 72 | 1020.1 |
| 20260508124921 | 58 | 105 | 0.0 | 1.0 | 0.00 | 0.00 | 0.00 | 74 | 1020.1 |
| 20260508124419 | 58 | 58 | 0.0 | 3.0 | 0.00 | 0.00 | 0.00 | 76 | 1020.0 |
| 20260508123917 | 57 | 333 | 0.0 | 2.0 | 0.00 | 0.00 | 0.00 | 78 | 1020.0 |
| 20260508123415 | 57 | 100 | 0.0 | 0.0 | 0.00 | 0.00 | 0.00 | 80 | 1019.9 |
| 20260508122911 | 57 | 124 | 0.0 | 0.0 | 0.00 | 0.00 | 0.00 | 83 | 1019.9 |
| 20260508122408 | 56 | 131 | 0.0 | 0.0 | 0.00 | 0.00 | 0.00 | 84 | 1019.6 |
| 20260508121905 | 55 | 144 | 0.0 | 0.0 | 0.00 | 0.00 | 0.00 | 88 | 1019.8 |
| 20260508121404 | 54 | 143 | 0.0 | 0.0 | 0.00 | 0.00 | 0.00 | 91 | 1019.8 |
| 20260508120901 | 53 | 145 | 0.0 | 0.0 | 0.00 | 0.00 | 0.00 | 92 | 1019.7 |
| 20260508120359 | 53 | 144 | 0.0 | 0.0 | 0.00 | 0.00 | 0.00 | 93 | 1019.6 |
| 20260508115856 | 53 | 144 | 0.0 | 0.0 | 0.00 | 0.00 | 0.00 | 94 | 1019.8 |
| 20260508115353 | 52 | 159 | 0.0 | 0.0 | 0.00 | 0.00 | 0.00 | 95 | 1019.7 |
| 20260508114849 | 52 | 155 | 0.0 | 0.0 | 0.00 | 0.00 | 0.00 | 95 | 1019.4 |
| 20260508114347 | 52 | 155 | 0.0 | 0.0 | 0.00 | 0.00 | 0.00 | 95 | 1019.5 |
| 20260508113843 | 52 | 155 | 0.0 | 0.0 | 0.00 | 0.00 | 0.00 | 96 | 1019.4 |
| 20260508113341 | 52 | 155 | 0.0 | 0.0 | 0.00 | 0.00 | 0.00 | 96 | 1019.3 |
| 20260508112838 | 52 | 155 | 0.0 | 0.0 | 0.00 | 0.00 | 0.00 | 96 | 1019.1 |
| 20260508112335 | 51 | 155 | 0.0 | 0.0 | 0.00 | 0.00 | 0.00 | 97 | 1019.2 |
| 20260508111831 | 51 | 155 | 0.0 | 0.0 | 0.00 | 0.00 | 0.00 | 96 | 1019.0 |
| 20260508111328 | 51 | 155 | 0.0 | 0.0 | 0.00 | 0.00 | 0.00 | 97 | 1018.7 |
| 20260508110826 | 50 | 155 | 0.0 | 0.0 | 0.00 | 0.00 | 0.00 | 96 | 1018.4 |
| 20260508110323 | 50 | 155 | 0.0 | 0.0 | 0.00 | 0.00 | 0.00 | 96 | 1018.4 |
| 20260508105823 | 51 | 155 | 0.0 | 0.0 | 0.00 | 0.00 | 0.00 | 96 | 1018.3 |
| 20260508105320 | 51 | 155 | 0.0 | 0.0 | 0.00 | 0.00 | 0.00 | 96 | 1018.1 |
| 20260508104817 | 50 | 155 | 0.0 | 0.0 | 0.00 | 0.00 | 0.00 | 96 | 1018.2 |
| 20260508104314 | 50 | 155 | 0.0 | 0.0 | 0.00 | 0.00 | 0.00 | 96 | 1018.1 |
| 20260508103811 | 50 | 155 | 0.0 | 0.0 | 0.00 | 0.00 | 0.00 | 96 | 1018.2 |
| 20260508103308 | 50 | 155 | 0.0 | 0.0 | 0.00 | 0.00 | 0.00 | 96 | 1018.1 |
| 20260508102806 | 50 | 155 | 0.0 | 0.0 | 0.00 | 0.00 | 0.00 | 96 | 1018.0 |
| 20260508102306 | 50 | 155 | 0.0 | 0.0 | 0.00 | 0.00 | 0.00 | 96 | 1017.8 |
| 20260508101800 | 50 | 155 | 0.0 | 0.0 | 0.00 | 0.00 | 0.00 | 96 | 1017.6 |
| 20260508101258 | 50 | 155 | 0.0 | 0.0 | 0.00 | 0.00 | 0.00 | 96 | 1017.8 |
| 20260508100755 | 51 | 155 | 0.0 | 0.0 | 0.00 | 0.00 | 0.00 | 96 | 1017.8 |
| 20260508100254 | 51 | 155 | 0.0 | 0.0 | 0.00 | 0.00 | 0.00 | 96 | 1017.7 |
| 20260508095749 | 51 | 155 | 0.0 | 0.0 | 0.00 | 0.00 | 0.00 | 96 | 1017.5 |
| 20260508095247 | 51 | 155 | 0.0 | 0.0 | 0.00 | 0.00 | 0.00 | 96 | 1017.5 |
| 20260508094743 | 51 | 155 | 0.0 | 0.0 | 0.00 | 0.00 | 0.00 | 96 | 1017.5 |
| 20260508094241 | 51 | 155 | 0.0 | 0.0 | 0.00 | 0.00 | 0.00 | 96 | 1017.3 |
| 20260508093737 | 51 | 155 | 0.0 | 0.0 | 0.00 | 0.00 | 0.00 | 96 | 1017.3 |
| 20260508093235 | 51 | 155 | 0.0 | 0.0 | 0.00 | 0.00 | 0.00 | 96 | 1017.3 |
| 20260508092732 | 51 | 155 | 0.0 | 0.0 | 0.00 | 0.00 | 0.00 | 96 | 1017.2 |
| 20260508092230 | 51 | 155 | 0.0 | 0.0 | 0.00 | 0.00 | 0.00 | 96 | 1017.3 |
| 20260508091728 | 51 | 155 | 0.0 | 0.0 | 0.00 | 0.00 | 0.00 | 96 | 1017.2 |
| 20260508091224 | 51 | 155 | 0.0 | 0.0 | 0.00 | 0.00 | 0.00 | 96 | 1017.3 |
| 20260508090722 | 51 | 155 | 0.0 | 0.0 | 0.00 | 0.00 | 0.00 | 95 | 1017.3 |
| 20260508090220 | 51 | 155 | 0.0 | 0.0 | 0.00 | 0.00 | 0.00 | 95 | 1017.1 |
| 20260508085716 | 51 | 155 | 0.0 | 0.0 | 0.00 | 0.00 | 0.00 | 95 | 1017.1 |
| 20260508085213 | 51 | 155 | 0.0 | 0.0 | 0.00 | 0.00 | 0.00 | 95 | 1017.1 |
| 20260508084709 | 51 | 155 | 0.0 | 0.0 | 0.00 | 0.00 | 0.00 | 95 | 1017.0 |
| 20260508084207 | 51 | 155 | 0.0 | 0.0 | 0.00 | 0.00 | 0.00 | 95 | 1016.8 |
| 20260508083704 | 51 | 155 | 0.0 | 0.0 | 0.00 | 0.00 | 0.00 | 95 | 1016.8 |
| 20260508083201 | 51 | 155 | 0.0 | 0.0 | 0.00 | 0.00 | 0.00 | 95 | 1016.8 |
| 20260508082656 | 51 | 155 | 0.0 | 0.0 | 0.00 | 0.00 | 0.00 | 95 | 1016.9 |
| 20260508082153 | 51 | 155 | 0.0 | 0.0 | 0.00 | 0.00 | 0.00 | 95 | 1017.0 |
| 20260508081651 | 51 | 155 | 0.0 | 0.0 | 0.00 | 0.00 | 0.00 | 95 | 1017.1 |
| 20260508081147 | 51 | 155 | 0.0 | 0.0 | 0.00 | 0.00 | 0.00 | 95 | 1017.0 |
| 20260508080645 | 51 | 156 | 0.0 | 0.0 | 0.00 | 0.00 | 0.00 | 94 | 1016.7 |
| 20260508080143 | 51 | 161 | 0.0 | 0.0 | 0.00 | 0.00 | 0.00 | 94 | 1016.7 |
| 20260508075639 | 51 | 161 | 0.0 | 0.0 | 0.00 | 0.00 | 0.00 | 94 | 1016.8 |
| 20260508075136 | 51 | 162 | 0.0 | 0.0 | 0.00 | 0.00 | 0.00 | 94 | 1016.9 |
| 20260508074634 | 51 | 161 | 0.0 | 0.0 | 0.00 | 0.00 | 0.00 | 94 | 1016.9 |
| 20260508074130 | 51 | 162 | 0.0 | 0.0 | 0.00 | 0.00 | 0.00 | 94 | 1016.9 |
| 20260508073628 | 52 | 162 | 0.0 | 0.0 | 0.00 | 0.00 | 0.00 | 93 | 1016.7 |
| 20260508073126 | 52 | 162 | 0.0 | 0.0 | 0.00 | 0.00 | 0.00 | 93 | 1016.8 |
| 20260508072621 | 52 | 162 | 0.0 | 0.0 | 0.00 | 0.00 | 0.00 | 93 | 1016.8 |
| 20260508072118 | 52 | 164 | 0.0 | 0.0 | 0.00 | 0.00 | 0.00 | 93 | 1016.9 |
| 20260508071616 | 52 | 164 | 0.0 | 0.0 | 0.00 | 0.00 | 0.00 | 93 | 1016.9 |
| 20260508071114 | 52 | 164 | 0.0 | 0.0 | 0.00 | 0.00 | 0.00 | 93 | 1016.8 |
| 20260508070611 | 53 | 164 | 0.0 | 0.0 | 0.00 | 0.00 | 0.00 | 93 | 1016.7 |
| 20260508070110 | 53 | 171 | 0.0 | 0.0 | 0.00 | 0.00 | 0.00 | 93 | 1017.0 |
| 20260508065606 | 53 | 171 | 0.0 | 0.0 | 0.00 | 0.00 | 0.00 | 93 | 1016.7 |
| 20260508065104 | 52 | 172 | 0.0 | 1.0 | 0.00 | 0.00 | 0.00 | 93 | 1016.6 |
| 20260508064602 | 52 | 89 | 0.0 | 0.0 | 0.00 | 0.00 | 0.00 | 92 | 1016.6 |
| 20260508064100 | 52 | 89 | 0.0 | 0.0 | 0.00 | 0.00 | 0.00 | 92 | 1016.7 |
| 20260508063556 | 53 | 89 | 0.0 | 0.0 | 0.00 | 0.00 | 0.00 | 92 | 1016.7 |
| 20260508063055 | 53 | 89 | 0.0 | 0.0 | 0.00 | 0.00 | 0.00 | 92 | 1016.6 |
| 20260508062552 | 53 | 89 | 0.0 | 0.0 | 0.00 | 0.00 | 0.00 | 92 | 1016.6 |
| 20260508062048 | 53 | 89 | 0.0 | 0.0 | 0.00 | 0.00 | 0.00 | 91 | 1016.5 |
| 20260508061546 | 53 | 89 | 0.0 | 0.0 | 0.00 | 0.00 | 0.00 | 91 | 1016.5 |
| 20260508061043 | 53 | 89 | 0.0 | 0.0 | 0.00 | 0.00 | 0.00 | 91 | 1016.4 |
| 20260508060540 | 53 | 89 | 0.0 | 0.0 | 0.00 | 0.00 | 0.00 | 91 | 1016.8 |
| 20260508060037 | 53 | 89 | 0.0 | 0.0 | 0.00 | 0.00 | 0.00 | 91 | 1016.6 |
| 20260508055533 | 54 | 89 | 0.0 | 0.0 | 0.00 | 0.00 | 0.00 | 91 | 1016.5 |
| 20260508055030 | 54 | 89 | 0.0 | 0.0 | 0.00 | 0.00 | 0.00 | 91 | 1016.6 |
| 20260508054526 | 54 | 89 | 0.0 | 0.0 | 0.00 | 0.00 | 0.00 | 91 | 1016.8 |
| 20260508054024 | 54 | 90 | 0.0 | 0.0 | 0.00 | 0.00 | 0.00 | 90 | 1016.8 |
| 20260508053520 | 54 | 91 | 0.0 | 0.0 | 0.00 | 0.00 | 0.00 | 89 | 1016.9 |
| 20260508053019 | 54 | 90 | 0.0 | 0.0 | 0.00 | 0.00 | 0.00 | 89 | 1016.7 |
| 20260508052515 | 55 | 78 | 0.0 | 0.0 | 0.00 | 0.00 | 0.00 | 88 | 1016.9 |
| 20260508052012 | 55 | 78 | 0.0 | 1.0 | 0.00 | 0.00 | 0.00 | 88 | 1016.8 |
| 20260508051508 | 55 | 75 | 0.0 | 0.0 | 0.00 | 0.00 | 0.00 | 87 | 1016.7 |
| 20260508051003 | 55 | 75 | 0.0 | 0.0 | 0.00 | 0.00 | 0.00 | 86 | 1016.7 |
| 20260508050500 | 55 | 73 | 0.0 | 0.0 | 0.00 | 0.00 | 0.00 | 86 | 1016.6 |
| 20260508045957 | 55 | 72 | 0.0 | 0.0 | 0.00 | 0.00 | 0.00 | 86 | 1016.7 |
| 20260508045454 | 56 | 72 | 0.0 | 0.0 | 0.00 | 0.00 | 0.00 | 85 | 1016.8 |
| 20260508044951 | 56 | 71 | 0.0 | 0.0 | 0.00 | 0.00 | 0.00 | 84 | 1016.5 |
| 20260508044449 | 56 | 70 | 0.0 | 0.0 | 0.00 | 0.00 | 0.00 | 84 | 1016.5 |
| 20260508043943 | 56 | 70 | 0.0 | 0.0 | 0.00 | 0.00 | 0.00 | 83 | 1016.5 |
| 20260508043442 | 56 | 109 | 0.0 | 0.0 | 0.00 | 0.00 | 0.00 | 83 | 1016.4 |
| 20260508042937 | 57 | 109 | 0.0 | 0.0 | 0.00 | 0.00 | 0.00 | 82 | 1016.3 |
| 20260508042436 | 57 | 225 | 0.0 | 0.0 | 0.00 | 0.00 | 0.00 | 82 | 1016.4 |
| 20260508041932 | 57 | 225 | 0.0 | 0.0 | 0.00 | 0.00 | 0.00 | 81 | 1016.4 |
| 20260508041429 | 57 | 225 | 0.0 | 0.0 | 0.00 | 0.00 | 0.00 | 80 | 1016.1 |
| 20260508040926 | 58 | 225 | 0.0 | 0.0 | 0.00 | 0.00 | 0.00 | 79 | 1016.1 |
| 20260508040423 | 59 | 225 | 0.0 | 0.0 | 0.00 | 0.00 | 0.00 | 78 | 1016.1 |
| 20260508035921 | 59 | 225 | 0.0 | 0.0 | 0.00 | 1.94 | 1.94 | 76 | 1016.4 |
| 20260508035417 | 59 | 225 | 0.0 | 0.0 | 0.00 | 1.94 | 1.94 | 76 | 1016.1 |
| 20260508034914 | 59 | 225 | 0.0 | 0.0 | 0.00 | 1.94 | 1.94 | 77 | 1015.9 |
| 20260508034411 | 59 | 225 | 0.0 | 0.0 | 0.00 | 1.94 | 1.94 | 76 | 1016.0 |
| 20260508033908 | 59 | 225 | 0.0 | 0.0 | 0.00 | 1.94 | 1.94 | 74 | 1016.1 |
| 20260508033406 | 60 | 225 | 0.0 | 0.0 | 0.00 | 1.94 | 1.94 | 74 | 1016.1 |
| 20260508032903 | 60 | 225 | 0.0 | 0.0 | 0.00 | 1.94 | 1.94 | 73 | 1016.0 |
| 20260508032401 | 60 | 226 | 0.0 | 0.0 | 0.00 | 1.94 | 1.94 | 72 | 1016.3 |
| 20260508031857 | 61 | 234 | 0.0 | 1.0 | 0.00 | 1.94 | 1.94 | 72 | 1016.1 |
| 20260508031354 | 61 | 235 | 1.0 | 2.0 | 0.00 | 1.94 | 1.94 | 72 | 1016.1 |
| 20260508030850 | 61 | 230 | 0.0 | 1.0 | 0.00 | 1.94 | 1.94 | 71 | 1016.1 |
| 20260508030347 | 61 | 229 | 0.0 | 0.0 | 0.00 | 1.94 | 1.94 | 71 | 1015.8 |
| 20260508025844 | 61 | 238 | 0.0 | 1.0 | 0.00 | 1.94 | 1.94 | 70 | 1015.7 |
| 20260508025341 | 62 | 239 | 0.0 | 0.0 | 0.00 | 1.94 | 1.94 | 69 | 1015.9 |
| 20260508024838 | 62 | 278 | 1.0 | 2.0 | 0.00 | 1.94 | 1.94 | 68 | 1015.6 |
| 20260508024334 | 62 | 236 | 0.0 | 1.0 | 0.00 | 1.94 | 1.94 | 68 | 1015.6 |
| 20260508023832 | 62 | 252 | 3.0 | 4.0 | 0.00 | 1.94 | 1.94 | 67 | 1015.5 |
| 20260508023328 | 63 | 258 | 2.0 | 4.0 | 0.00 | 1.94 | 1.94 | 67 | 1015.5 |
| 20260508022825 | 63 | 244 | 4.0 | 4.0 | 0.00 | 1.94 | 1.94 | 67 | 1015.2 |
| 20260508022321 | 63 | 287 | 2.0 | 4.0 | 0.00 | 1.94 | 1.94 | 66 | 1015.0 |
| 20260508021818 | 63 | 261 | 2.0 | 4.0 | 0.00 | 1.94 | 1.94 | 66 | 1015.1 |
| 20260508021314 | 63 | 241 | 2.0 | 4.0 | 0.00 | 1.94 | 1.94 | 67 | 1015.2 |
| 20260508020810 | 63 | 283 | 2.0 | 4.0 | 0.00 | 1.94 | 1.94 | 66 | 1015.0 |
| 20260508020308 | 64 | 243 | 4.0 | 4.0 | 0.00 | 1.94 | 1.94 | 65 | 1015.1 |
| 20260508015804 | 64 | 252 | 2.0 | 7.0 | 0.00 | 1.94 | 1.94 | 65 | 1015.1 |
| 20260508015305 | 64 | 255 | 4.0 | 4.0 | 0.00 | 1.94 | 1.94 | 64 | 1015.1 |
| 20260508014759 | 64 | 275 | 3.0 | 4.0 | 0.00 | 1.94 | 1.94 | 64 | 1014.9 |
| 20260508014256 | 64 | 275 | 4.0 | 7.0 | 0.00 | 1.94 | 1.94 | 63 | 1014.7 |
| 20260508013751 | 64 | 246 | 4.0 | 8.0 | 0.00 | 1.94 | 1.94 | 63 | 1014.8 |
| 20260508013248 | 64 | 266 | 2.0 | 4.0 | 0.00 | 1.94 | 1.94 | 64 | 1014.6 |
| 20260508012746 | 65 | 218 | 3.0 | 6.0 | 0.00 | 1.94 | 1.94 | 64 | 1014.3 |
| 20260508012242 | 65 | 245 | 4.0 | 7.0 | 0.00 | 1.94 | 1.94 | 64 | 1014.3 |
| 20260508011741 | 65 | 269 | 0.0 | 2.0 | 0.00 | 1.94 | 1.94 | 64 | 1014.4 |
| 20260508011238 | 65 | 262 | 3.0 | 4.0 | 0.00 | 1.94 | 1.94 | 63 | 1014.3 |
| 20260508010735 | 66 | 263 | 2.0 | 7.0 | 0.00 | 1.94 | 1.94 | 63 | 1014.1 |
| 20260508010233 | 66 | 258 | 2.0 | 7.0 | 0.00 | 1.94 | 1.94 | 63 | 1014.3 |
| 20260508005729 | 66 | 254 | 1.0 | 2.0 | 0.00 | 1.94 | 1.94 | 63 | 1013.9 |
| 20260508005226 | 66 | 243 | 1.0 | 6.0 | 0.00 | 1.94 | 1.94 | 63 | 1013.9 |
| 20260508004721 | 66 | 241 | 1.0 | 4.0 | 0.00 | 1.94 | 1.94 | 62 | 1013.8 |
| 20260508004218 | 67 | 282 | 2.0 | 3.0 | 0.00 | 1.94 | 1.94 | 62 | 1013.8 |
| 20260508003715 | 67 | 257 | 1.0 | 6.0 | 0.00 | 1.94 | 1.94 | 60 | 1013.5 |
| 20260508003212 | 67 | 352 | 1.0 | 4.0 | 0.00 | 1.94 | 1.94 | 60 | 1013.4 |
| 20260508002708 | 68 | 240 | 2.0 | 7.0 | 0.00 | 1.94 | 1.94 | 60 | 1013.3 |
| 20260508002206 | 68 | 280 | 4.0 | 6.0 | 0.00 | 1.94 | 1.94 | 60 | 1013.4 |
| 20260508001702 | 68 | 243 | 2.0 | 6.0 | 0.00 | 1.94 | 1.94 | 60 | 1013.2 |
| 20260508001157 | 69 | 258 | 5.0 | 7.0 | 0.00 | 1.94 | 1.94 | 60 | 1013.3 |
| 20260508000653 | 69 | 268 | 3.0 | 9.0 | 0.00 | 1.94 | 1.94 | 60 | 1013.1 |
| 20260508000151 | 69 | 223 | 2.0 | 7.0 | 0.00 | 1.94 | 1.94 | 61 | 1013.0 |
| 20260507235648 | 70 | 301 | 3.0 | 6.0 | 0.00 | 1.94 | 1.94 | 61 | 1012.8 |
| 20260507235145 | 70 | 254 | 4.0 | 9.0 | 0.00 | 1.94 | 1.94 | 60 | 1012.5 |
| 20260507234642 | 70 | 253 | 3.0 | 6.0 | 0.00 | 1.94 | 1.94 | 60 | 1012.7 |
| 20260507234132 | 71 | 239 | 4.0 | 9.0 | 0.00 | 1.94 | 1.94 | 60 | 1012.6 |
| 20260507233629 | 71 | 281 | 1.0 | 3.0 | 0.00 | 1.94 | 1.94 | 60 | 1012.7 |
| 20260507233128 | 71 | 281 | 1.0 | 4.0 | 0.00 | 1.94 | 1.94 | 60 | 1012.5 |
| 20260507232625 | 71 | 276 | 2.0 | 10.0 | 0.00 | 1.94 | 1.94 | 59 | 1012.4 |
| 20260507232121 | 71 | 259 | 2.0 | 4.0 | 0.00 | 1.94 | 1.94 | 59 | 1012.4 |
| 20260507231617 | 72 | 22 | 3.0 | 6.0 | 0.00 | 1.94 | 1.94 | 59 | 1012.2 |
| 20260507231115 | 72 | 290 | 4.0 | 7.0 | 0.00 | 1.94 | 1.94 | 60 | 1012.3 |
| 20260507230611 | 72 | 266 | 2.0 | 7.0 | 0.00 | 1.94 | 1.94 | 60 | 1011.9 |
| 20260507230108 | 73 | 245 | 3.0 | 7.0 | 0.00 | 1.94 | 1.94 | 60 | 1012.0 |
| 20260507225602 | 73 | 266 | 0.0 | 2.0 | 0.00 | 1.94 | 1.94 | 60 | 1011.9 |
| 20260507225059 | 74 | 284 | 2.0 | 6.0 | 0.00 | 1.94 | 1.94 | 60 | 1012.0 |
| 20260507224555 | 74 | 257 | 2.0 | 6.0 | 0.00 | 1.94 | 1.94 | 61 | 1011.8 |
| 20260507224052 | 74 | 334 | 2.0 | 7.0 | 0.00 | 1.94 | 1.94 | 60 | 1011.7 |
| 20260507223548 | 74 | 255 | 4.0 | 8.0 | 0.00 | 1.94 | 1.94 | 61 | 1011.6 |
| 20260507223045 | 74 | 263 | 4.0 | 10.0 | 0.00 | 1.94 | 1.94 | 60 | 1011.6 |
| 20260507222542 | 75 | 294 | 6.0 | 11.0 | 0.00 | 1.94 | 1.94 | 59 | 1011.5 |
| 20260507222038 | 74 | 266 | 3.0 | 9.0 | 0.00 | 1.94 | 1.94 | 61 | 1011.4 |
| 20260507221535 | 74 | 279 | 7.0 | 11.0 | 0.00 | 1.94 | 1.94 | 60 | 1011.3 |
| 20260507221032 | 74 | 235 | 7.0 | 14.0 | 0.00 | 1.94 | 1.94 | 60 | 1011.4 |
| 20260507220529 | 75 | 242 | 6.0 | 9.0 | 0.00 | 1.94 | 1.94 | 61 | 1011.3 |
| 20260507220026 | 75 | 229 | 6.0 | 10.0 | 0.00 | 1.94 | 1.94 | 60 | 1011.1 |
| 20260507215522 | 74 | 316 | 6.0 | 9.0 | 0.00 | 1.94 | 1.94 | 61 | 1011.3 |
| 20260507215020 | 74 | 226 | 6.0 | 8.0 | 0.00 | 1.94 | 1.94 | 61 | 1011.3 |
| 20260507214517 | 75 | 226 | 5.0 | 7.0 | 0.00 | 1.94 | 1.94 | 60 | 1011.3 |
| 20260507214013 | 75 | 252 | 7.0 | 10.0 | 0.00 | 1.94 | 1.94 | 60 | 1011.3 |
| 20260507213510 | 75 | 282 | 3.0 | 10.0 | 0.00 | 1.94 | 1.94 | 60 | 1011.4 |
| 20260507213007 | 75 | 292 | 5.0 | 11.0 | 0.00 | 1.94 | 1.94 | 60 | 1011.0 |
| 20260507212502 | 75 | 273 | 3.0 | 8.0 | 0.00 | 1.94 | 1.94 | 61 | 1011.0 |
| 20260507211959 | 75 | 229 | 3.0 | 6.0 | 0.00 | 1.94 | 1.94 | 62 | 1011.2 |
| 20260507211456 | 75 | 278 | 5.0 | 9.0 | 0.00 | 1.94 | 1.94 | 61 | 1011.2 |
| 20260507210952 | 76 | 278 | 4.0 | 7.0 | 0.00 | 1.94 | 1.94 | 60 | 1011.1 |
| 20260507210449 | 77 | 241 | 2.0 | 16.0 | 0.00 | 1.94 | 1.94 | 58 | 1011.1 |
| 20260507205946 | 76 | 265 | 5.0 | 8.0 | 0.00 | 1.94 | 1.94 | 60 | 1011.1 |
| 20260507205443 | 76 | 229 | 5.0 | 10.0 | 0.00 | 1.94 | 1.94 | 60 | 1010.9 |
| 20260507204939 | 76 | 241 | 5.0 | 13.0 | 0.00 | 1.94 | 1.94 | 60 | 1011.1 |